sensor_id;sensor_type;location;lat;lon;timestamp;pressure;altitude;pressure_sealevel;temperature;humidity
22389;BME280;11362;48.102;11.620;2023-01-30T00:01:39;95713.91;;;22.97;30.44
22389;BME280;11362;48.102;11.620;2023-01-30T00:04:05;95716.66;;;22.97;30.55
22389;BME280;11362;48.102;11.620;2023-01-30T00:06:30;95713.50;;;22.95;30.58
22389;BME280;11362;48.102;11.620;2023-01-30T00:08:56;95704.00;;;22.96;30.53
22389;BME280;11362;48.102;11.620;2023-01-30T00:11:21;95705.59;;;22.97;30.51
22389;BME280;11362;48.102;11.620;2023-01-30T00:13:47;95701.22;;;22.96;30.46
22389;BME280;11362;48.102;11.620;2023-01-30T00:16:13;95691.34;;;22.95;30.71
22389;BME280;11362;48.102;11.620;2023-01-30T00:18:39;95685.81;;;22.95;31.38
22389;BME280;11362;48.102;11.620;2023-01-30T00:21:06;95685.81;;;22.95;30.79
22389;BME280;11362;48.102;11.620;2023-01-30T00:23:33;95681.06;;;22.95;30.50
22389;BME280;11362;48.102;11.620;2023-01-30T00:26:00;95685.00;;;22.94;30.41
22389;BME280;11362;48.102;11.620;2023-01-30T00:28:25;95685.00;;;22.94;31.18
22389;BME280;11362;48.102;11.620;2023-01-30T00:30:52;95684.25;;;22.94;30.71
22389;BME280;11362;48.102;11.620;2023-01-30T00:33:19;95682.66;;;22.93;30.58
22389;BME280;11362;48.102;11.620;2023-01-30T00:35:45;95677.13;;;22.93;30.78
22389;BME280;11362;48.102;11.620;2023-01-30T00:38:11;95672.34;;;22.93;30.72
22389;BME280;11362;48.102;11.620;2023-01-30T00:40:37;95673.56;;;22.92;31.77
22389;BME280;11362;48.102;11.620;2023-01-30T00:43:02;95677.91;;;22.93;30.86
22389;BME280;11362;48.102;11.620;2023-01-30T00:45:28;95663.28;;;22.93;30.70
22389;BME280;11362;48.102;11.620;2023-01-30T00:47:53;95660.50;;;22.93;30.80
22389;BME280;11362;48.102;11.620;2023-01-30T00:50:18;95656.16;;;22.92;30.68
22389;BME280;11362;48.102;11.620;2023-01-30T00:52:43;95648.63;;;22.92;31.63
22389;BME280;11362;48.102;11.620;2023-01-30T00:55:09;95649.41;;;22.93;31.10
22389;BME280;11362;48.102;11.620;2023-01-30T00:57:34;95649.41;;;22.93;31.40
22389;BME280;11362;48.102;11.620;2023-01-30T00:59:59;95642.31;;;22.92;31.28
22389;BME280;11362;48.102;11.620;2023-01-30T01:02:24;95640.69;;;22.91;31.48
22389;BME280;11362;48.102;11.620;2023-01-30T01:04:50;95634.38;;;22.90;30.97
22389;BME280;11362;48.102;11.620;2023-01-30T01:07:15;95637.53;;;22.92;31.57
22389;BME280;11362;48.102;11.620;2023-01-30T01:09:41;95629.63;;;22.91;30.61
22389;BME280;11362;48.102;11.620;2023-01-30T01:12:06;95624.50;;;22.89;30.69
22389;BME280;11362;48.102;11.620;2023-01-30T01:14:32;95624.09;;;22.91;30.41
22389;BME280;11362;48.102;11.620;2023-01-30T01:16:58;95616.97;;;22.90;30.35
22389;BME280;11362;48.102;11.620;2023-01-30T01:19:24;95616.97;;;22.90;30.18
22389;BME280;11362;48.102;11.620;2023-01-30T01:21:49;95613.00;;;22.91;30.54
22389;BME280;11362;48.102;11.620;2023-01-30T01:24:15;95601.91;;;22.91;30.55
22389;BME280;11362;48.102;11.620;2023-01-30T01:26:41;95613.81;;;22.91;31.13
22389;BME280;11362;48.102;11.620;2023-01-30T01:29:11;95615.78;;;22.91;30.62
22389;BME280;11362;48.102;11.620;2023-01-30T01:31:37;95611.44;;;22.90;30.37
22389;BME280;11362;48.102;11.620;2023-01-30T01:34:02;95614.19;;;22.90;29.88
22389;BME280;11362;48.102;11.620;2023-01-30T01:36:27;95607.09;;;22.89;30.66
22389;BME280;11362;48.102;11.620;2023-01-30T01:38:53;95611.44;;;22.90;30.38
22389;BME280;11362;48.102;11.620;2023-01-30T01:41:18;95608.66;;;22.90;30.02
22389;BME280;11362;48.102;11.620;2023-01-30T01:44:00;95607.09;;;22.89;30.02
22389;BME280;11362;48.102;11.620;2023-01-30T01:46:50;95601.53;;;22.89;29.85
22389;BME280;11362;48.102;11.620;2023-01-30T01:49:34;95598.78;;;22.89;30.12
22389;BME280;11362;48.102;11.620;2023-01-30T01:52:06;95598.78;;;22.89;29.42
22389;BME280;11362;48.102;11.620;2023-01-30T01:54:33;95589.28;;;22.90;29.49
22389;BME280;11362;48.102;11.620;2023-01-30T01:57:04;95585.72;;;22.89;29.35
22389;BME280;11362;48.102;11.620;2023-01-30T01:59:33;95577.41;;;22.89;29.49
22389;BME280;11362;48.102;11.620;2023-01-30T02:02:05;95587.69;;;22.89;29.42
22389;BME280;11362;48.102;11.620;2023-01-30T02:04:32;95586.50;;;22.90;29.21
22389;BME280;11362;48.102;11.620;2023-01-30T02:06:58;95584.53;;;22.90;29.41
22389;BME280;11362;48.102;11.620;2023-01-30T02:09:23;95590.06;;;22.90;29.43
22389;BME280;11362;48.102;11.620;2023-01-30T02:11:53;95592.03;;;22.90;29.36
22389;BME280;11362;48.102;11.620;2023-01-30T02:14:20;95596.38;;;22.91;29.08
22389;BME280;11362;48.102;11.620;2023-01-30T02:16:46;95602.72;;;22.91;29.25
22389;BME280;11362;48.102;11.620;2023-01-30T02:19:24;95607.47;;;22.91;28.98
22389;BME280;11362;48.102;11.620;2023-01-30T02:22:03;95607.47;;;22.91;29.06
22389;BME280;11362;48.102;11.620;2023-01-30T02:24:49;95615.78;;;22.91;29.12
22389;BME280;11362;48.102;11.620;2023-01-30T02:27:44;95605.88;;;22.90;29.17
22389;BME280;11362;48.102;11.620;2023-01-30T02:33:15;95613.00;;;22.91;29.10
22389;BME280;11362;48.102;11.620;2023-01-30T02:41:49;95586.91;;;22.92;28.94
22389;BME280;11362;48.102;11.620;2023-01-30T02:47:27;95609.06;;;22.92;28.73
22389;BME280;11362;48.102;11.620;2023-01-30T02:49:59;95609.47;;;22.90;28.96
22389;BME280;11362;48.102;11.620;2023-01-30T02:52:26;95611.44;;;22.90;28.80
22389;BME280;11362;48.102;11.620;2023-01-30T02:54:53;95618.53;;;22.91;28.70
22389;BME280;11362;48.102;11.620;2023-01-30T02:57:23;95615.78;;;22.91;28.77
22389;BME280;11362;48.102;11.620;2023-01-30T02:59:53;95608.66;;;22.90;28.63
22389;BME280;11362;48.102;11.620;2023-01-30T03:05:52;95629.63;;;22.91;28.90
22389;BME280;11362;48.102;11.620;2023-01-30T03:11:06;95627.66;;;22.91;28.64
22389;BME280;11362;48.102;11.620;2023-01-30T03:16:45;95626.84;;;22.91;28.59
22389;BME280;11362;48.102;11.620;2023-01-30T03:19:12;95624.88;;;22.91;28.57
22389;BME280;11362;48.102;11.620;2023-01-30T03:21:42;95621.31;;;22.91;28.78
22389;BME280;11362;48.102;11.620;2023-01-30T03:24:07;95611.84;;;22.92;28.17
22389;BME280;11362;48.102;11.620;2023-01-30T03:26:36;95604.28;;;22.92;28.50
22389;BME280;11362;48.102;11.620;2023-01-30T03:29:01;95599.94;;;22.91;28.53
22389;BME280;11362;48.102;11.620;2023-01-30T03:31:27;95592.44;;;22.92;28.56
22389;BME280;11362;48.102;11.620;2023-01-30T03:33:52;95591.66;;;22.91;28.45
22389;BME280;11362;48.102;11.620;2023-01-30T03:36:18;95589.69;;;22.92;28.40
22389;BME280;11362;48.102;11.620;2023-01-30T03:38:43;95594.03;;;22.93;28.39
22389;BME280;11362;48.102;11.620;2023-01-30T03:41:08;95594.03;;;22.93;28.62
22389;BME280;11362;48.102;11.620;2023-01-30T03:43:34;95603.53;;;22.92;28.45
22389;BME280;11362;48.102;11.620;2023-01-30T03:45:59;95589.25;;;22.93;28.45
22389;BME280;11362;48.102;11.620;2023-01-30T03:48:24;95586.09;;;22.91;28.45
22389;BME280;11362;48.102;11.620;2023-01-30T03:50:49;95586.91;;;22.92;28.39
22389;BME280;11362;48.102;11.620;2023-01-30T03:53:15;95580.16;;;22.93;28.39
22389;BME280;11362;48.102;11.620;2023-01-30T03:55:40;95582.13;;;22.92;28.42
22389;BME280;11362;48.102;11.620;2023-01-30T03:58:05;95573.44;;;22.90;28.37
22389;BME280;11362;48.102;11.620;2023-01-30T04:00:31;95564.75;;;22.92;28.53
22389;BME280;11362;48.102;11.620;2023-01-30T04:02:56;95573.06;;;22.92;28.52
22389;BME280;11362;48.102;11.620;2023-01-30T04:05:22;95568.69;;;22.91;28.49
22389;BME280;11362;48.102;11.620;2023-01-30T04:07:47;95567.50;;;22.92;28.48
22389;BME280;11362;48.102;11.620;2023-01-30T04:10:13;95558.00;;;22.93;28.25
22389;BME280;11362;48.102;11.620;2023-01-30T04:12:38;95566.31;;;22.93;28.34
22389;BME280;11362;48.102;11.620;2023-01-30T04:15:04;95565.50;;;22.92;28.39
22389;BME280;11362;48.102;11.620;2023-01-30T04:17:29;95576.59;;;22.92;28.82
22389;BME280;11362;48.102;11.620;2023-01-30T04:19:54;95597.97;;;22.92;28.33
22389;BME280;11362;48.102;11.620;2023-01-30T04:22:20;95599.16;;;22.91;28.44
22389;BME280;11362;48.102;11.620;2023-01-30T04:24:45;95575.81;;;22.92;28.39
22389;BME280;11362;48.102;11.620;2023-01-30T04:27:10;95580.56;;;22.91;28.71
22389;BME280;11362;48.102;11.620;2023-01-30T04:29:36;95576.22;;;22.90;28.63
22389;BME280;11362;48.102;11.620;2023-01-30T04:32:01;95575.03;;;22.91;28.53
22389;BME280;11362;48.102;11.620;2023-01-30T04:34:26;95575.81;;;22.92;28.40
22389;BME280;11362;48.102;11.620;2023-01-30T04:36:51;95585.31;;;22.91;28.20
22389;BME280;11362;48.102;11.620;2023-01-30T04:39:17;95575.81;;;22.92;28.18
22389;BME280;11362;48.102;11.620;2023-01-30T04:41:42;95582.94;;;22.93;28.34
22389;BME280;11362;48.102;11.620;2023-01-30T04:44:07;95579.75;;;22.91;28.24
22389;BME280;11362;48.102;11.620;2023-01-30T04:46:33;95578.59;;;22.92;28.39
22389;BME280;11362;48.102;11.620;2023-01-30T04:48:58;95578.16;;;22.93;28.48
22389;BME280;11362;48.102;11.620;2023-01-30T04:51:23;95556.44;;;22.92;28.58
22389;BME280;11362;48.102;11.620;2023-01-30T04:53:48;95537.81;;;22.92;28.18
22389;BME280;11362;48.102;11.620;2023-01-30T04:56:14;95538.63;;;22.93;28.24
22389;BME280;11362;48.102;11.620;2023-01-30T04:58:39;95528.31;;;22.93;28.22
22389;BME280;11362;48.102;11.620;2023-01-30T05:01:17;95534.28;;;22.92;28.22
22389;BME280;11362;48.102;11.620;2023-01-30T05:03:48;95531.50;;;22.92;28.30
22389;BME280;11362;48.102;11.620;2023-01-30T05:06:13;95531.50;;;22.92;28.44
22389;BME280;11362;48.102;11.620;2023-01-30T05:08:39;95529.09;;;22.94;28.34
22389;BME280;11362;48.102;11.620;2023-01-30T05:11:04;95537.41;;;22.94;28.14
22389;BME280;11362;48.102;11.620;2023-01-30T05:13:29;95533.44;;;22.95;28.08
22389;BME280;11362;48.102;11.620;2023-01-30T05:15:54;95533.06;;;22.93;28.07
22389;BME280;11362;48.102;11.620;2023-01-30T05:18:20;95534.66;;;22.94;28.27
22389;BME280;11362;48.102;11.620;2023-01-30T05:20:45;95515.25;;;22.94;28.01
22389;BME280;11362;48.102;11.620;2023-01-30T05:23:10;95484.78;;;22.94;27.99
22389;BME280;11362;48.102;11.620;2023-01-30T05:25:36;95490.31;;;22.94;28.02
22389;BME280;11362;48.102;11.620;2023-01-30T05:28:01;95495.88;;;22.94;28.04
22389;BME280;11362;48.102;11.620;2023-01-30T05:30:26;95493.88;;;22.94;27.87
22389;BME280;11362;48.102;11.620;2023-01-30T05:32:51;95506.94;;;22.94;28.02
22389;BME280;11362;48.102;11.620;2023-01-30T05:35:17;95500.22;;;22.95;28.04
22389;BME280;11362;48.102;11.620;2023-01-30T05:37:42;95495.88;;;22.94;27.99
22389;BME280;11362;48.102;11.620;2023-01-30T05:40:07;95504.19;;;22.94;27.90
22389;BME280;11362;48.102;11.620;2023-01-30T05:42:33;95495.06;;;22.93;27.76
22389;BME280;11362;48.102;11.620;2023-01-30T05:44:58;95504.19;;;22.94;27.97
22389;BME280;11362;48.102;11.620;2023-01-30T05:47:24;95507.72;;;22.94;27.81
22389;BME280;11362;48.102;11.620;2023-01-30T05:49:49;95498.63;;;22.94;27.95
22389;BME280;11362;48.102;11.620;2023-01-30T05:52:14;95490.31;;;22.94;27.84
22389;BME280;11362;48.102;11.620;2023-01-30T05:54:39;95489.53;;;22.93;27.88
22389;BME280;11362;48.102;11.620;2023-01-30T05:57:05;95491.53;;;22.93;28.06
22389;BME280;11362;48.102;11.620;2023-01-30T05:59:30;95501.00;;;22.95;28.11
22389;BME280;11362;48.102;11.620;2023-01-30T06:01:55;95490.31;;;22.94;28.61
22389;BME280;11362;48.102;11.620;2023-01-30T06:04:21;95479.25;;;22.94;28.51
22389;BME280;11362;48.102;11.620;2023-01-30T06:06:48;95483.97;;;22.93;29.04
22389;BME280;11362;48.102;11.620;2023-01-30T06:09:13;95491.91;;;22.95;29.57
22389;BME280;11362;48.102;11.620;2023-01-30T06:11:39;95499.00;;;22.96;29.33
22389;BME280;11362;48.102;11.620;2023-01-30T06:14:04;95486.72;;;22.97;30.38
22389;BME280;11362;48.102;11.620;2023-01-30T06:16:29;95477.63;;;23.00;30.45
22389;BME280;11362;48.102;11.620;2023-01-30T06:18:54;95481.97;;;23.01;30.15
22389;BME280;11362;48.102;11.620;2023-01-30T06:21:20;95489.47;;;23.00;30.65
22389;BME280;11362;48.102;11.620;2023-01-30T06:23:45;95498.59;;;23.01;30.69
22389;BME280;11362;48.102;11.620;2023-01-30T06:26:10;95496.59;;;23.01;30.73
22389;BME280;11362;48.102;11.620;2023-01-30T06:28:36;95491.84;;;23.02;30.30
22389;BME280;11362;48.102;11.620;2023-01-30T06:31:01;95496.19;;;23.03;30.63
22389;BME280;11362;48.102;11.620;2023-01-30T06:33:27;95494.97;;;23.04;30.80
22389;BME280;11362;48.102;11.620;2023-01-30T06:35:52;95504.09;;;23.04;31.39
22389;BME280;11362;48.102;11.620;2023-01-30T06:38:18;95491.00;;;23.05;30.99
22389;BME280;11362;48.102;11.620;2023-01-30T06:40:44;95487.84;;;23.06;31.17
22389;BME280;11362;48.102;11.620;2023-01-30T06:43:10;95484.31;;;23.06;31.01
22389;BME280;11362;48.102;11.620;2023-01-30T06:45:36;95491.78;;;23.09;31.35
22389;BME280;11362;48.102;11.620;2023-01-30T06:48:01;95489.00;;;23.09;31.22
22389;BME280;11362;48.102;11.620;2023-01-30T06:50:28;95494.19;;;23.07;31.65
22389;BME280;11362;48.102;11.620;2023-01-30T06:52:54;95474.78;;;23.07;31.56
22389;BME280;11362;48.102;11.620;2023-01-30T06:55:24;95481.53;;;23.06;32.29
22389;BME280;11362;48.102;11.620;2023-01-30T06:58:09;95489.84;;;23.06;31.09
22389;BME280;11362;48.102;11.620;2023-01-30T07:00:37;95488.66;;;23.03;30.28
22389;BME280;11362;48.102;11.620;2023-01-30T07:03:02;95498.56;;;23.04;30.33
22389;BME280;11362;48.102;11.620;2023-01-30T07:05:28;95491.00;;;23.05;30.52
22389;BME280;11362;48.102;11.620;2023-01-30T07:07:53;95492.22;;;23.04;30.08
22389;BME280;11362;48.102;11.620;2023-01-30T07:10:19;95515.56;;;23.03;30.01
22389;BME280;11362;48.102;11.620;2023-01-30T07:12:45;95515.19;;;23.04;29.84
22389;BME280;11362;48.102;11.620;2023-01-30T07:15:11;95503.28;;;23.04;30.03
22389;BME280;11362;48.102;11.620;2023-01-30T07:17:39;95512.03;;;23.02;30.03
22389;BME280;11362;48.102;11.620;2023-01-30T07:20:04;95514.38;;;23.04;29.62
22389;BME280;11362;48.102;11.620;2023-01-30T07:22:30;95520.72;;;23.04;29.51
22389;BME280;11362;48.102;11.620;2023-01-30T07:24:55;95525.09;;;23.02;29.42
22389;BME280;11362;48.102;11.620;2023-01-30T07:27:20;95519.53;;;23.02;29.28
22389;BME280;11362;48.102;11.620;2023-01-30T07:29:46;95515.19;;;23.01;29.36
22389;BME280;11362;48.102;11.620;2023-01-30T07:32:16;95517.97;;;23.01;29.32
22389;BME280;11362;48.102;11.620;2023-01-30T07:34:42;95524.28;;;23.01;29.15
22389;BME280;11362;48.102;11.620;2023-01-30T07:37:07;95529.81;;;23.01;29.08
22389;BME280;11362;48.102;11.620;2023-01-30T07:39:33;95512.44;;;23.01;29.17
22389;BME280;11362;48.102;11.620;2023-01-30T07:42:01;95510.88;;;23.00;28.49
22389;BME280;11362;48.102;11.620;2023-01-30T07:44:27;95525.91;;;22.99;29.17
22389;BME280;11362;48.102;11.620;2023-01-30T07:46:52;95519.16;;;23.00;29.24
22389;BME280;11362;48.102;11.620;2023-01-30T07:49:18;95512.44;;;23.01;28.90
22389;BME280;11362;48.102;11.620;2023-01-30T07:51:43;95499.78;;;23.00;29.14
22389;BME280;11362;48.102;11.620;2023-01-30T07:54:08;95466.53;;;23.00;28.94
22389;BME280;11362;48.102;11.620;2023-01-30T07:56:34;95466.91;;;23.02;29.12
22389;BME280;11362;48.102;11.620;2023-01-30T07:58:59;95457.78;;;23.01;29.40
22389;BME280;11362;48.102;11.620;2023-01-30T08:01:24;95476.41;;;23.01;29.18
22389;BME280;11362;48.102;11.620;2023-01-30T08:03:50;95476.81;;;22.99;28.76
22389;BME280;11362;48.102;11.620;2023-01-30T08:06:15;95463.75;;;23.00;28.69
22389;BME280;11362;48.102;11.620;2023-01-30T08:08:41;95464.53;;;23.00;28.73
22389;BME280;11362;48.102;11.620;2023-01-30T08:11:07;95459.00;;;23.00;28.76
22389;BME280;11362;48.102;11.620;2023-01-30T08:13:33;95463.34;;;23.01;28.64
22389;BME280;11362;48.102;11.620;2023-01-30T08:16:02;95468.88;;;23.01;28.55
22389;BME280;11362;48.102;11.620;2023-01-30T08:18:29;95475.63;;;23.00;28.56
22389;BME280;11362;48.102;11.620;2023-01-30T08:21:04;95468.88;;;23.01;28.69
22389;BME280;11362;48.102;11.620;2023-01-30T08:23:32;95459.78;;;23.01;28.70
22389;BME280;11362;48.102;11.620;2023-01-30T08:26:00;95466.91;;;23.02;29.20
22389;BME280;11362;48.102;11.620;2023-01-30T08:28:26;95463.34;;;23.01;29.74
22389;BME280;11362;48.102;11.620;2023-01-30T08:30:52;95451.34;;;23.15;29.44
22389;BME280;11362;48.102;11.620;2023-01-30T08:33:18;95450.53;;;23.21;30.72
22389;BME280;11362;48.102;11.620;2023-01-30T08:35:43;95455.69;;;23.19;30.81
22389;BME280;11362;48.102;11.620;2023-01-30T08:38:09;95452.91;;;23.23;30.34
22389;BME280;11362;48.102;11.620;2023-01-30T08:40:35;95444.97;;;23.21;30.01
22389;BME280;11362;48.102;11.620;2023-01-30T08:43:01;95427.63;;;23.14;29.74
22389;BME280;11362;48.102;11.620;2023-01-30T08:45:26;95432.75;;;23.12;30.04
22389;BME280;11362;48.102;11.620;2023-01-30T08:47:51;95428.44;;;23.11;30.21
22389;BME280;11362;48.102;11.620;2023-01-30T08:50:17;95432.34;;;23.20;30.54
22389;BME280;11362;48.102;11.620;2023-01-30T08:52:42;95432.28;;;23.24;30.20
22389;BME280;11362;48.102;11.620;2023-01-30T08:55:08;95436.97;;;23.30;30.66
22389;BME280;11362;48.102;11.620;2023-01-30T08:57:34;95440.09;;;23.36;30.40
22389;BME280;11362;48.102;11.620;2023-01-30T08:59:59;95422.63;;;23.38;30.61
22389;BME280;11362;48.102;11.620;2023-01-30T09:02:25;95421.88;;;23.38;29.79
22389;BME280;11362;48.102;11.620;2023-01-30T09:04:50;95425.81;;;23.37;30.01
22389;BME280;11362;48.102;11.620;2023-01-30T09:07:15;95420.31;;;23.33;30.04
22389;BME280;11362;48.102;11.620;2023-01-30T09:09:40;95415.59;;;23.31;30.38
22389;BME280;11362;48.102;11.620;2023-01-30T09:12:06;95407.22;;;23.38;30.40
22389;BME280;11362;48.102;11.620;2023-01-30T09:14:31;95421.00;;;23.44;30.26
22389;BME280;11362;48.102;11.620;2023-01-30T09:16:56;95425.69;;;23.47;30.19
22389;BME280;11362;48.102;11.620;2023-01-30T09:19:26;95416.97;;;23.49;29.96
22389;BME280;11362;48.102;11.620;2023-01-30T09:21:52;95403.47;;;23.51;29.95
22389;BME280;11362;48.102;11.620;2023-01-30T09:24:18;95415.72;;;23.53;29.98
22389;BME280;11362;48.102;11.620;2023-01-30T09:26:44;95413.75;;;23.54;29.78
22389;BME280;11362;48.102;11.620;2023-01-30T09:29:11;95408.22;;;23.54;29.86
22389;BME280;11362;48.102;11.620;2023-01-30T09:31:37;95405.00;;;23.55;29.82
22389;BME280;11362;48.102;11.620;2023-01-30T09:34:02;95422.81;;;23.58;29.79
22389;BME280;11362;48.102;11.620;2023-01-30T09:36:27;95419.63;;;23.59;29.85
22389;BME280;11362;48.102;11.620;2023-01-30T09:38:53;95426.34;;;23.62;29.57
22389;BME280;11362;48.102;11.620;2023-01-30T09:47:13;95411.69;;;23.61;29.42
22389;BME280;11362;48.102;11.620;2023-01-30T09:49:55;95400.13;;;23.66;29.51
22389;BME280;11362;48.102;11.620;2023-01-30T09:55:17;95391.06;;;23.62;29.93
22389;BME280;11362;48.102;11.620;2023-01-30T09:57:46;95375.66;;;23.58;30.04
22389;BME280;11362;48.102;11.620;2023-01-30T10:02:46;95368.56;;;23.57;29.69
22389;BME280;11362;48.102;11.620;2023-01-30T10:05:14;95382.47;;;23.53;30.17
22389;BME280;11362;48.102;11.620;2023-01-30T10:08:31;95404.28;;;23.51;29.41
22389;BME280;11362;48.102;11.620;2023-01-30T10:16:48;95371.94;;;23.42;28.76
22389;BME280;11362;48.102;11.620;2023-01-30T10:21:42;95347.03;;;23.38;28.22
22389;BME280;11362;48.102;11.620;2023-01-30T10:26:34;95352.72;;;23.57;29.30
22389;BME280;11362;48.102;11.620;2023-01-30T10:29:11;95344.75;;;23.59;28.35
22389;BME280;11362;48.102;11.620;2023-01-30T10:31:44;95341.50;;;23.68;29.17
22389;BME280;11362;48.102;11.620;2023-01-30T10:34:18;95329.97;;;23.69;29.10
22389;BME280;11362;48.102;11.620;2023-01-30T10:39:41;95317.66;;;23.74;29.71
22389;BME280;11362;48.102;11.620;2023-01-30T10:42:11;95318.09;;;23.69;29.88
22389;BME280;11362;48.102;11.620;2023-01-30T10:44:38;95320.16;;;23.61;30.03
22389;BME280;11362;48.102;11.620;2023-01-30T10:50:13;95335.91;;;23.71;29.90
22389;BME280;11362;48.102;11.620;2023-01-30T10:52:41;95322.41;;;23.73;29.98
22389;BME280;11362;48.102;11.620;2023-01-30T10:55:18;95317.22;;;23.75;30.38
22389;BME280;11362;48.102;11.620;2023-01-30T10:57:57;95309.59;;;23.83;30.24
22389;BME280;11362;48.102;11.620;2023-01-30T11:00:28;95313.72;;;23.71;30.87
22389;BME280;11362;48.102;11.620;2023-01-30T11:03:27;95323.25;;;23.70;31.24
22389;BME280;11362;48.102;11.620;2023-01-30T11:06:02;95324.91;;;23.64;30.85
22389;BME280;11362;48.102;11.620;2023-01-30T11:08:32;95325.72;;;23.61;31.21
22389;BME280;11362;48.102;11.620;2023-01-30T11:10:58;95309.50;;;23.60;30.48
22389;BME280;11362;48.102;11.620;2023-01-30T11:13:27;95303.53;;;23.61;31.44
22389;BME280;11362;48.102;11.620;2023-01-30T11:15:55;95300.09;;;23.80;31.49
22389;BME280;11362;48.102;11.620;2023-01-30T11:18:22;95274.44;;;23.73;31.09
22389;BME280;11362;48.102;11.620;2023-01-30T11:21:04;95266.63;;;23.68;31.30
22389;BME280;11362;48.102;11.620;2023-01-30T11:23:38;95268.69;;;23.60;31.19
22389;BME280;11362;48.102;11.620;2023-01-30T11:26:04;95266.31;;;23.59;31.78
22389;BME280;11362;48.102;11.620;2023-01-30T11:28:35;95255.66;;;23.57;32.06
22389;BME280;11362;48.102;11.620;2023-01-30T11:31:03;95239.09;;;23.54;32.54
22389;BME280;11362;48.102;11.620;2023-01-30T11:33:33;95231.97;;;23.53;32.18
22389;BME280;11362;48.102;11.620;2023-01-30T11:36:05;95236.63;;;23.59;31.67
22389;BME280;11362;48.102;11.620;2023-01-30T11:38:33;95235.63;;;23.73;31.78
22389;BME280;11362;48.102;11.620;2023-01-30T11:43:34;95251.44;;;23.76;32.59
22389;BME280;11362;48.102;11.620;2023-01-30T11:46:00;95247.88;;;23.75;32.21
22389;BME280;11362;48.102;11.620;2023-01-30T11:48:27;95238.34;;;23.76;32.75
22389;BME280;11362;48.102;11.620;2023-01-30T11:50:58;95231.63;;;23.77;31.92
22389;BME280;11362;48.102;11.620;2023-01-30T11:53:37;95232.06;;;23.72;32.59
22389;BME280;11362;48.102;11.620;2023-01-30T11:56:13;95213.88;;;23.71;32.77
22389;BME280;11362;48.102;11.620;2023-01-30T11:58:40;95222.25;;;23.68;32.18
22389;BME280;11362;48.102;11.620;2023-01-30T12:01:08;95208.03;;;23.62;33.11
22389;BME280;11362;48.102;11.620;2023-01-30T12:03:41;95210.09;;;23.58;32.61
22389;BME280;11362;48.102;11.620;2023-01-30T12:06:08;95212.50;;;23.56;33.01
22389;BME280;11362;48.102;11.620;2023-01-30T12:08:39;95216.91;;;23.54;32.16
22389;BME280;11362;48.102;11.620;2023-01-30T12:11:23;95231.53;;;23.54;33.36
22389;BME280;11362;48.102;11.620;2023-01-30T12:13:49;95239.50;;;23.52;33.29
22389;BME280;11362;48.102;11.620;2023-01-30T12:16:20;95204.66;;;23.51;33.08
22389;BME280;11362;48.102;11.620;2023-01-30T12:18:55;95201.88;;;23.51;32.83
22389;BME280;11362;48.102;11.620;2023-01-30T12:24:24;95202.69;;;23.52;33.74
22389;BME280;11362;48.102;11.620;2023-01-30T12:27:03;95194.38;;;23.52;33.55
22389;BME280;11362;48.102;11.620;2023-01-30T12:29:58;95184.09;;;23.49;33.71
22389;BME280;11362;48.102;11.620;2023-01-30T12:32:30;95179.41;;;23.46;34.11
22389;BME280;11362;48.102;11.620;2023-01-30T12:34:56;95172.66;;;23.47;33.33
22389;BME280;11362;48.102;11.620;2023-01-30T12:40:29;95164.78;;;23.42;32.94
22389;BME280;11362;48.102;11.620;2023-01-30T12:46:14;95144.63;;;23.42;32.27
22389;BME280;11362;48.102;11.620;2023-01-30T12:49:04;95150.94;;;23.42;31.99
22389;BME280;11362;48.102;11.620;2023-01-30T12:51:49;95143.03;;;23.40;32.15
22389;BME280;11362;48.102;11.620;2023-01-30T12:59:45;95153.75;;;23.38;31.93
22389;BME280;11362;48.102;11.620;2023-01-30T13:02:39;95154.97;;;23.38;31.74
22389;BME280;11362;48.102;11.620;2023-01-30T13:05:24;95170.78;;;23.37;31.68
22389;BME280;11362;48.102;11.620;2023-01-30T13:08:18;95163.69;;;23.36;31.91
22389;BME280;11362;48.102;11.620;2023-01-30T13:16:27;95167.31;;;23.33;31.94
22389;BME280;11362;48.102;11.620;2023-01-30T13:19:00;95169.28;;;23.33;32.21
22389;BME280;11362;48.102;11.620;2023-01-30T13:21:37;95172.50;;;23.31;32.38
22389;BME280;11362;48.102;11.620;2023-01-30T13:24:18;95185.97;;;23.29;31.90
22389;BME280;11362;48.102;11.620;2023-01-30T13:26:47;95206.56;;;23.28;31.33
22389;BME280;11362;48.102;11.620;2023-01-30T13:31:54;95194.72;;;23.28;32.02
22389;BME280;11362;48.102;11.620;2023-01-30T13:34:27;95186.81;;;23.26;32.28
22389;BME280;11362;48.102;11.620;2023-01-30T13:37:08;95199.88;;;23.26;32.12
22389;BME280;11362;48.102;11.620;2023-01-30T13:39:36;95188.78;;;23.26;32.64
22389;BME280;11362;48.102;11.620;2023-01-30T13:42:07;95207.41;;;23.25;32.22
22389;BME280;11362;48.102;11.620;2023-01-30T13:44:37;95204.63;;;23.25;32.84
22389;BME280;11362;48.102;11.620;2023-01-30T13:47:30;95210.59;;;23.24;32.22
22389;BME280;11362;48.102;11.620;2023-01-30T13:53:26;95208.22;;;23.22;31.55
22389;BME280;11362;48.102;11.620;2023-01-30T13:56:14;95213.00;;;23.22;31.22
22389;BME280;11362;48.102;11.620;2023-01-30T13:58:51;95204.69;;;23.22;32.63
22389;BME280;11362;48.102;11.620;2023-01-30T14:01:18;95201.91;;;23.22;31.56
22389;BME280;11362;48.102;11.620;2023-01-30T14:03:43;95212.19;;;23.21;31.49
22389;BME280;11362;48.102;11.620;2023-01-30T14:11:28;95214.63;;;23.19;32.09
22389;BME280;11362;48.102;11.620;2023-01-30T14:16:43;95189.31;;;23.17;31.85
22389;BME280;11362;48.102;11.620;2023-01-30T14:19:42;95193.66;;;23.18;31.90
22389;BME280;11362;48.102;11.620;2023-01-30T14:22:22;95221.00;;;23.16;31.86
22389;BME280;11362;48.102;11.620;2023-01-30T14:30:46;95226.53;;;23.16;32.77